»·PEaware :: N5603M KSAD-KTUS

N5603M :: KSAD-KTUS

FLIGHT INFORMATION

Flight Status: Arrived
Operator: Privately registered:
United States
More flights under this callsign
Pilot: Dane A. (37799)
Aircraft: BEECH AIRCRAFT DEBONAIR BONANZA
(BE33)
More flights by this aircraft type
Origin: KSAD Safford Regl
United States
Destination: KTUS Tucson Intl
United States
More flights between these airports :: More routes between these airports
Route:
File this flight plan on PilotEdge
Remarks:
Altitude:
(Current/Filed)
10,500ft
Speed:
(Current/Filed)
150kts
Departed: 21-Oct-23 06:33 AM
Arrived: 21-Oct-23 07:09 AM
Distance/Time
Traveled:
79nm/0:35
Distance/Time
To Go:
Arrived

Flight Plot

Page will automatically refresh every two minutes.

Flight plan parsing failed; only flown route is shown


Map Options




Map Legend


Flown Route
Filed Route
Departure Airport
Arrival Airport
Navaid (VOR, NDB)
Fix

Horizontal Profiles

Position Reports

Time Latitude Longitude Heading Altitude Ground
Speed
21-Oct-23 06:22 32.853113 -109.637970 358 3167ft 0kts
21-Oct-23 06:23 32.853113 -109.637970 358 3167ft 0kts
21-Oct-23 06:24 32.853113 -109.637970 358 3167ft 0kts
21-Oct-23 06:25 32.853113 -109.637970 358 3167ft 0kts
21-Oct-23 06:26 32.853113 -109.637970 358 3167ft 0kts
21-Oct-23 06:27 32.853113 -109.637970 358 3167ft 0kts
21-Oct-23 06:28 32.853351 -109.639291 267 3165ft 8kts
21-Oct-23 06:29 32.853396 -109.642538 294 3162ft 8kts
21-Oct-23 06:30 32.853569 -109.642642 358 3162ft 0kts
21-Oct-23 06:31 32.853635 -109.642645 355 3162ft 2kts
21-Oct-23 06:32 32.853801 -109.626470 91 3439ft 87kts
21-Oct-23 06:33 32.834142 -109.621414 208 4120ft 92kts
21-Oct-23 06:34 32.817117 -109.648278 234 4625ft 115kts
21-Oct-23 06:35 32.799923 -109.680376 234 5320ft 114kts
21-Oct-23 06:36 32.783007 -109.712026 234 6013ft 112kts
21-Oct-23 06:37 32.766566 -109.742752 234 6703ft 108kts
21-Oct-23 06:38 32.750818 -109.772021 233 7393ft 105kts
21-Oct-23 06:39 32.729310 -109.794720 212 8104ft 105kts
21-Oct-23 06:40 32.705681 -109.814927 212 8803ft 103kts
21-Oct-23 06:41 32.684816 -109.836687 218 9478ft 96kts
21-Oct-23 06:42 32.665808 -109.858059 232 10086ft 97kts
21-Oct-23 06:43 32.650805 -109.886926 231 10491ft 117kts
21-Oct-23 06:44 32.628632 -109.922607 231 10479ft 145kts
21-Oct-23 06:45 32.606068 -109.964367 238 10477ft 154kts
21-Oct-23 06:46 32.584193 -110.008680 238 10476ft 157kts
21-Oct-23 06:47 32.561989 -110.053427 237 10475ft 158kts
21-Oct-23 06:48 32.539636 -110.098414 237 10475ft 158kts
21-Oct-23 06:49 32.517293 -110.143201 237 10476ft 158kts
21-Oct-23 06:50 32.494931 -110.188068 238 10476ft 158kts
21-Oct-23 06:51 32.472540 -110.232974 238 10476ft 158kts
21-Oct-23 06:52 32.450158 -110.277811 238 10476ft 158kts
21-Oct-23 06:53 32.427696 -110.322749 238 10476ft 158kts
21-Oct-23 06:54 32.405224 -110.367658 237 10476ft 158kts
21-Oct-23 06:55 32.382790 -110.412434 238 10475ft 158kts
21-Oct-23 06:56 32.360344 -110.457290 238 10476ft 158kts
21-Oct-23 06:57 32.337624 -110.501807 237 10533ft 154kts
21-Oct-23 06:58 32.313477 -110.547336 237 10073ft 179kts
21-Oct-23 06:59 32.286856 -110.600209 239 9290ft 193kts
21-Oct-23 07:00 32.260066 -110.655712 239 8492ft 194kts
21-Oct-23 07:01 32.233750 -110.711484 239 7692ft 195kts
21-Oct-23 07:02 32.207574 -110.767262 240 6894ft 194kts
21-Oct-23 07:03 32.182434 -110.823296 244 6083ft 186kts
21-Oct-23 07:04 32.166212 -110.872185 251 5242ft 136kts
21-Oct-23 07:05 32.158511 -110.914894 260 4073ft 124kts
21-Oct-23 07:06 32.148000 -110.945907 228 3298ft 88kts
21-Oct-23 07:07 32.129397 -110.955150 136 2809ft 81kts
21-Oct-23 07:08 32.117987 -110.941556 112 2599ft 13kts
21-Oct-23 07:09 32.118625 -110.940931 0 2599ft 0kts
21-Oct-23 07:10 32.119596 -110.940988 330 2598ft 10kts
21-Oct-23 07:11 32.122663 -110.944559 312 2587ft 18kts
21-Oct-23 07:12 32.125433 -110.946389 65 2577ft 7kts
21-Oct-23 07:13 32.125793 -110.945168 46 2576ft 0kts
21-Oct-23 07:14 32.125795 -110.945165 46 2576ft 0kts

Navigation Log

Ident Type
Flight plan parsing failed, navigation log unavailable